createdAt,value
2023-02-22T00:02:13.279Z,98191.97
2023-02-22T00:04:42.021Z,98191.69
2023-02-22T00:07:10.360Z,98192.47
2023-02-22T00:09:40.262Z,98190.19
2023-02-22T00:12:10.304Z,98190.81
2023-02-22T00:14:40.360Z,98182.38
2023-02-22T00:17:08.640Z,98185.06
2023-02-22T00:19:37.182Z,98178.78
2023-02-22T00:22:05.456Z,98176.63
2023-02-22T00:24:36.239Z,98178.81
2023-02-22T00:27:05.794Z,98180.09
2023-02-22T00:29:34.787Z,98185.97
2023-02-22T00:32:03.166Z,98196.34
2023-02-22T00:34:31.876Z,98187.31
2023-02-22T00:37:03.093Z,98188.41
2023-02-22T00:39:31.592Z,98197.16
2023-02-22T00:42:00.344Z,98202.03
2023-02-22T00:44:30.466Z,98198.25
2023-02-22T00:46:58.747Z,98198.75
2023-02-22T00:49:27.275Z,98193.59
2023-02-22T00:51:56.035Z,98195.22
2023-02-22T00:54:24.566Z,98201.22
2023-02-22T00:56:54.157Z,98200.91
2023-02-22T00:59:22.755Z,98203.91
2023-02-22T01:01:52.313Z,98205.84
2023-02-22T01:04:20.895Z,98202.25
2023-02-22T01:06:49.354Z,98206.34
2023-02-22T01:09:17.834Z,98203.63
2023-02-22T01:11:46.499Z,98197.03
2023-02-22T01:14:15.021Z,98203.56
2023-02-22T01:16:44.532Z,98201.38
2023-02-22T01:19:14.372Z,98206.91
2023-02-22T01:21:42.574Z,98209.00
2023-02-22T01:24:11.652Z,98201.09
2023-02-22T01:26:39.985Z,98201.34
2023-02-22T01:29:10.208Z,98197.53
2023-02-22T01:31:38.477Z,98193.91
2023-02-22T01:34:07.024Z,98190.97
2023-02-22T01:36:36.712Z,98193.75
2023-02-22T01:39:05.549Z,98190.09
2023-02-22T01:41:34.025Z,98200.97
2023-02-22T01:44:21.590Z,98204.72
2023-02-22T01:46:49.866Z,98207.38
2023-02-22T01:49:18.614Z,98194.72
2023-02-22T01:51:52.787Z,98201.09
2023-02-22T01:54:25.047Z,98194.84
2023-02-22T01:56:56.037Z,98195.38
2023-02-22T01:59:25.181Z,98195.91
2023-02-22T02:01:53.408Z,98195.22
2023-02-22T02:04:25.631Z,98194.53
2023-02-22T02:06:56.084Z,98195.38
2023-02-22T02:09:31.256Z,98194.03
2023-02-22T02:12:02.771Z,98193.47
2023-02-22T02:14:33.018Z,98191.41
2023-02-22T02:17:02.495Z,98194.25
2023-02-22T02:19:40.059Z,98200.56
2023-02-22T02:22:25.730Z,98196.50
2023-02-22T02:25:19.203Z,98206.03
2023-02-22T02:28:19.289Z,98202.53
2023-02-22T02:31:03.564Z,98197.03
2023-02-22T02:33:34.858Z,98203.00
2023-02-22T02:36:05.966Z,98200.56
2023-02-22T02:38:36.363Z,98191.84
2023-02-22T02:41:10.797Z,98201.66
2023-02-22T02:43:43.545Z,98202.22
2023-02-22T02:46:16.141Z,98199.47
2023-02-22T02:48:50.515Z,98201.13
2023-02-22T02:51:19.828Z,98200.53
2023-02-22T02:53:49.291Z,98201.38
2023-02-22T02:56:17.859Z,98205.31
2023-02-22T02:58:49.211Z,98203.56
2023-02-22T03:01:24.438Z,98206.63
2023-02-22T03:04:03.485Z,98208.25
2023-02-22T03:06:51.441Z,98214.31
2023-02-22T03:09:28.916Z,98206.94
2023-02-22T03:12:05.315Z,98203.63
2023-02-22T03:14:39.583Z,98200.38
2023-02-22T03:17:16.308Z,98206.91
2023-02-22T03:19:48.007Z,98209.91
2023-02-22T03:22:23.894Z,98207.44
2023-02-22T03:24:55.200Z,98209.91
2023-02-22T03:27:28.174Z,98210.72
2023-02-22T03:30:00.906Z,98197.03
2023-02-22T03:32:32.814Z,98204.38
2023-02-22T03:35:06.562Z,98213.09
2023-02-22T03:37:37.600Z,98209.69
2023-02-22T03:40:13.959Z,98221.34
2023-02-22T03:42:45.190Z,98218.03
2023-02-22T03:45:15.737Z,98226.13
2023-02-22T03:47:47.476Z,98221.75
2023-02-22T03:50:18.515Z,98226.81
2023-02-22T03:52:48.451Z,98230.53
2023-02-22T03:55:17.865Z,98226.78
2023-02-22T03:57:48.219Z,98223.00
2023-02-22T04:00:22.484Z,98222.22
2023-02-22T04:02:51.162Z,98224.34
2023-02-22T04:05:21.516Z,98220.78
2023-02-22T04:07:50.278Z,98219.69
2023-02-22T04:10:19.004Z,98227.41
2023-02-22T04:12:47.821Z,98231.84
2023-02-22T04:15:17.991Z,98227.50
2023-02-22T04:17:46.806Z,98225.25
2023-02-22T04:20:15.435Z,98222.00
2023-02-22T04:22:45.369Z,98227.56
2023-02-22T04:25:13.821Z,98226.28
2023-02-22T04:27:42.453Z,98214.59
2023-02-22T04:30:11.985Z,98217.78
2023-02-22T04:32:40.771Z,98218.00
2023-02-22T04:35:09.590Z,98224.44
2023-02-22T04:37:38.149Z,98213.50
2023-02-22T04:40:08.952Z,98218.63
2023-02-22T04:42:37.941Z,98218.06
2023-02-22T04:45:08.052Z,98215.84
2023-02-22T04:47:36.714Z,98210.09
2023-02-22T04:50:05.596Z,98214.72
2023-02-22T04:52:36.771Z,98218.47
2023-02-22T04:55:05.991Z,98214.09
2023-02-22T04:57:35.868Z,98222.38
2023-02-22T05:00:05.879Z,98214.47
2023-02-22T05:02:34.489Z,98221.66
2023-02-22T05:05:02.814Z,98217.94
2023-02-22T05:07:31.452Z,98226.09
2023-02-22T05:09:59.640Z,98224.75
2023-02-22T05:12:28.662Z,98219.16
2023-02-22T05:14:58.726Z,98229.53
2023-02-22T05:17:26.883Z,98219.09
2023-02-22T05:19:55.460Z,98221.13
2023-02-22T05:22:24.547Z,98223.97
2023-02-22T05:24:53.497Z,98229.81
2023-02-22T05:27:21.927Z,98227.06
2023-02-22T05:29:50.752Z,98239.16
2023-02-22T05:32:20.345Z,98238.69
2023-02-22T05:34:48.963Z,98231.72
2023-02-22T05:37:17.533Z,98234.69
2023-02-22T05:39:46.827Z,98240.97
2023-02-22T05:42:15.021Z,98243.19
2023-02-22T05:44:44.159Z,98241.53
2023-02-22T05:47:12.421Z,98240.44
2023-02-22T05:49:42.458Z,98239.25
2023-02-22T05:52:10.580Z,98241.34
2023-02-22T05:54:39.184Z,98249.31
2023-02-22T05:57:07.822Z,98245.22
2023-02-22T05:59:36.327Z,98246.59
2023-02-22T06:02:04.833Z,98255.06
2023-02-22T06:04:33.318Z,98253.44
2023-02-22T06:07:03.036Z,98251.34
2023-02-22T06:09:31.701Z,98253.94
2023-02-22T06:12:00.100Z,98255.06
2023-02-22T06:14:28.509Z,98268.97
2023-02-22T06:16:57.695Z,98264.69
2023-02-22T06:19:26.614Z,98269.03
2023-02-22T06:21:57.148Z,98273.44
2023-02-22T06:24:27.688Z,98270.47
2023-02-22T06:26:57.041Z,98274.56
2023-02-22T06:29:25.742Z,98283.28
2023-02-22T06:31:54.090Z,98281.66
2023-02-22T06:34:23.214Z,98287.66
2023-02-22T06:36:51.648Z,98285.75
2023-02-22T06:39:20.214Z,98293.13
2023-02-22T06:41:51.576Z,98294.03
2023-02-22T06:44:20.146Z,98296.47
2023-02-22T06:46:50.997Z,98301.38
2023-02-22T06:49:20.328Z,98303.56
2023-02-22T06:51:48.747Z,98297.03
2023-02-22T06:54:17.396Z,98305.22
2023-02-22T06:56:45.733Z,98304.94
2023-02-22T06:59:15.704Z,98315.56
2023-02-22T07:01:44.688Z,98315.56
2023-02-22T07:04:13.237Z,98318.31
2023-02-22T07:06:41.667Z,98314.22
2023-02-22T07:09:10.533Z,98307.94
2023-02-22T07:11:39.917Z,98311.75
2023-02-22T07:14:08.563Z,98307.94
2023-02-22T07:16:38.439Z,98311.16
2023-02-22T07:19:06.989Z,98316.91
2023-02-22T07:21:35.375Z,98312.28
2023-02-22T07:24:05.472Z,98313.94
2023-02-22T07:26:40.137Z,98312.72
2023-02-22T07:29:08.778Z,98318.31
2023-02-22T07:31:39.058Z,98325.34
2023-02-22T07:34:07.843Z,98328.91
2023-02-22T07:36:36.190Z,98310.88
2023-02-22T07:39:04.807Z,98317.16
2023-02-22T07:41:33.307Z,98317.72
2023-02-22T07:44:01.802Z,98322.34
2023-02-22T07:46:30.257Z,98328.63
2023-02-22T07:49:00.152Z,98323.13
2023-02-22T07:51:28.516Z,98324.19
2023-02-22T07:53:56.999Z,98325.81
2023-02-22T07:56:25.227Z,98322.53
2023-02-22T07:58:53.794Z,98313.00
2023-02-22T08:01:22.198Z,98314.34
2023-02-22T08:03:50.711Z,98317.88
2023-02-22T08:06:21.085Z,98315.22
2023-02-22T08:08:49.589Z,98324.09
2023-02-22T08:11:18.103Z,98318.34
2023-02-22T08:13:46.784Z,98319.13
2023-02-22T08:16:14.972Z,98327.53
2023-02-22T08:18:43.513Z,98326.16
2023-02-22T08:21:11.732Z,98333.84
2023-02-22T08:23:41.604Z,98319.72
2023-02-22T08:26:15.697Z,98323.75
2023-02-22T08:28:44.337Z,98318.94
2023-02-22T08:31:12.704Z,98316.16
2023-02-22T08:33:41.618Z,98319.91
2023-02-22T08:36:10.571Z,98317.22
2023-02-22T08:38:39.070Z,98327.34
2023-02-22T08:41:08.741Z,98321.53
2023-02-22T08:43:37.299Z,98336.22
2023-02-22T08:46:06.166Z,98328.41
2023-02-22T08:48:34.838Z,98336.97
2023-02-22T08:51:03.110Z,98336.22
2023-02-22T08:53:32.946Z,98335.06
2023-02-22T08:56:01.147Z,98330.97
2023-02-22T08:58:31.058Z,98342.94
2023-02-22T09:00:59.646Z,98346.44
2023-02-22T09:03:28.403Z,98336.56
2023-02-22T09:05:59.558Z,98336.53
2023-02-22T09:08:28.374Z,98334.97
2023-02-22T09:10:56.673Z,98342.22
2023-02-22T09:13:25.443Z,98339.25
2023-02-22T09:15:55.029Z,98342.03
2023-02-22T09:18:24.503Z,98343.75
2023-02-22T09:20:53.721Z,98346.41
2023-02-22T09:23:22.831Z,98342.56
2023-02-22T09:25:51.868Z,98340.25
2023-02-22T09:28:20.405Z,98348.50
2023-02-22T09:30:49.055Z,98345.81
2023-02-22T09:33:21.048Z,98345.03
2023-02-22T09:35:51.007Z,98339.63
2023-02-22T09:38:22.852Z,98339.72
2023-02-22T09:40:52.884Z,98338.59
2023-02-22T09:43:37.136Z,98337.72
2023-02-22T09:46:23.093Z,98326.03
2023-02-22T09:49:07.755Z,98327.06
2023-02-22T09:51:42.641Z,98332.84
2023-02-22T09:54:17.743Z,98334.97
2023-02-22T09:56:47.717Z,98324.81
2023-02-22T09:59:20.482Z,98324.16
2023-02-22T10:01:51.423Z,98326.81
2023-02-22T10:04:24.880Z,98326.22
2023-02-22T10:07:06.239Z,98328.03
2023-02-22T10:09:38.457Z,98324.19
2023-02-22T10:12:12.849Z,98320.72
2023-02-22T10:14:50.782Z,98312.06
2023-02-22T10:17:27.545Z,98321.69
2023-02-22T10:20:08.435Z,98315.16
2023-02-22T10:22:57.928Z,98313.41
2023-02-22T10:25:28.034Z,98320.13
2023-02-22T10:27:59.004Z,98318.84
2023-02-22T10:30:28.358Z,98320.03
2023-02-22T10:33:00.974Z,98311.63
2023-02-22T10:35:34.423Z,98315.06
2023-02-22T10:38:08.616Z,98312.44
2023-02-22T10:40:37.202Z,98316.91
2023-02-22T10:43:07.257Z,98315.06
2023-02-22T10:45:37.248Z,98311.50
2023-02-22T10:48:11.745Z,98311.78
2023-02-22T10:50:43.400Z,98312.59
2023-02-22T10:53:11.994Z,98305.91
2023-02-22T10:56:12.843Z,98299.91
2023-02-22T10:58:49.280Z,98302.00
2023-02-22T11:01:38.557Z,98303.00
2023-02-22T11:04:13.098Z,98297.91
2023-02-22T11:06:45.100Z,98301.78
2023-02-22T11:09:15.714Z,98298.56
2023-02-22T11:11:47.262Z,98303.19
2023-02-22T11:14:27.150Z,98305.44
2023-02-22T11:16:57.076Z,98303.31
2023-02-22T11:19:26.990Z,98299.84
2023-02-22T11:21:58.745Z,98293.34
2023-02-22T11:24:34.633Z,98288.84
2023-02-22T11:27:09.063Z,98284.66
2023-02-22T11:29:38.417Z,98285.50
2023-02-22T11:32:15.420Z,98287.53
2023-02-22T11:34:44.204Z,98292.81
2023-02-22T11:37:30.587Z,98284.25
2023-02-22T11:40:19.835Z,98289.16
2023-02-22T11:42:48.707Z,98299.94
2023-02-22T11:45:20.943Z,98293.53
2023-02-22T11:47:53.755Z,98289.88
2023-02-22T11:50:29.750Z,98286.16
2023-02-22T11:53:10.614Z,98286.91
2023-02-22T11:55:46.880Z,98291.13
2023-02-22T11:58:28.463Z,98285.69
2023-02-22T12:01:01.822Z,98286.09
2023-02-22T12:03:58.592Z,98286.06
2023-02-22T12:06:33.628Z,98279.94
2023-02-22T12:09:14.177Z,98276.81
2023-02-22T12:11:50.959Z,98274.44
2023-02-22T12:14:26.886Z,98281.06
2023-02-22T12:17:13.935Z,98279.59
2023-02-22T12:19:44.695Z,98278.28
2023-02-22T12:22:17.968Z,98273.59
2023-02-22T12:24:55.453Z,98277.56
2023-02-22T12:27:35.397Z,98267.19
2023-02-22T12:30:07.125Z,98273.25
2023-02-22T12:32:38.156Z,98275.47
2023-02-22T12:35:14.405Z,98275.16
2023-02-22T12:37:52.448Z,98280.50
2023-02-22T12:40:25.878Z,98275.31
2023-02-22T12:42:58.869Z,98269.69
2023-02-22T12:45:31.932Z,98274.78
2023-02-22T12:48:08.853Z,98269.31
2023-02-22T12:50:38.715Z,98263.38
2023-02-22T12:53:15.199Z,98261.56
2023-02-22T12:55:49.308Z,98266.94
2023-02-22T12:58:25.367Z,98262.97
2023-02-22T13:01:00.725Z,98261.94
2023-02-22T13:03:33.431Z,98270.34
2023-02-22T13:06:24.868Z,98264.28
2023-02-22T13:09:03.959Z,98261.84
2023-02-22T13:11:41.290Z,98264.31
2023-02-22T13:14:18.429Z,98260.59
2023-02-22T13:16:52.838Z,98256.56
2023-02-22T13:19:34.220Z,98257.03
2023-02-22T13:22:07.225Z,98259.25
2023-02-22T13:24:41.813Z,98261.19
2023-02-22T13:27:15.586Z,98258.56
2023-02-22T13:29:46.205Z,98255.00
2023-02-22T13:32:26.630Z,98253.81
2023-02-22T13:35:31.948Z,98257.13
2023-02-22T13:38:11.811Z,98260.03
2023-02-22T13:41:12.407Z,98256.28
2023-02-22T13:43:55.290Z,98259.69
2023-02-22T13:47:01.332Z,98250.88
2023-02-22T13:49:49.371Z,98250.53
2023-02-22T13:52:18.870Z,98247.97
2023-02-22T13:54:51.613Z,98253.75
2023-02-22T13:57:22.267Z,98245.97
2023-02-22T14:00:24.451Z,98252.06
2023-02-22T14:03:02.219Z,98256.34
2023-02-22T14:05:52.332Z,98256.06
2023-02-22T14:08:42.775Z,98240.88
2023-02-22T14:11:56.992Z,98246.88
2023-02-22T14:14:25.921Z,98250.53
2023-02-22T14:17:24.038Z,98250.13
2023-02-22T14:20:04.787Z,98249.88
2023-02-22T14:22:33.332Z,98250.94
2023-02-22T14:25:01.592Z,98238.31
2023-02-22T14:27:41.028Z,98248.78
2023-02-22T14:30:26.221Z,98245.81
2023-02-22T14:32:56.473Z,98247.78
2023-02-22T14:35:28.788Z,98250.91
2023-02-22T14:38:02.880Z,98252.63
2023-02-22T14:40:32.776Z,98257.34
2023-02-22T14:43:04.919Z,98262.06
2023-02-22T14:45:34.766Z,98254.47
2023-02-22T14:48:13.684Z,98257.84
2023-02-22T14:50:45.412Z,98262.91
2023-02-22T14:53:22.191Z,98268.47
2023-02-22T14:55:56.278Z,98270.13
2023-02-22T14:58:27.530Z,98267.78
2023-02-22T15:00:56.975Z,98264.00
2023-02-22T15:03:34.392Z,98270.31
2023-02-22T15:06:07.475Z,98262.88
2023-02-22T15:08:41.755Z,98260.53
2023-02-22T15:11:21.709Z,98266.16
2023-02-22T15:13:54.405Z,98261.19
2023-02-22T15:16:24.028Z,98258.22
2023-02-22T15:18:56.668Z,98264.97
2023-02-22T15:21:27.146Z,98261.00
2023-02-22T15:23:58.130Z,98258.25
2023-02-22T15:26:30.821Z,98258.03
2023-02-22T15:29:00.527Z,98255.59
2023-02-22T15:31:32.229Z,98254.63
2023-02-22T15:34:22.277Z,98261.97
2023-02-22T15:36:54.610Z,98261.28
2023-02-22T15:39:27.224Z,98258.72
2023-02-22T15:42:08.059Z,98269.31
2023-02-22T15:44:38.809Z,98264.56
2023-02-22T15:47:07.997Z,98261.34
2023-02-22T15:49:38.131Z,98263.41
2023-02-22T15:52:09.759Z,98260.38
2023-02-22T15:54:41.513Z,98265.47
2023-02-22T15:57:09.596Z,98263.16
2023-02-22T15:59:44.563Z,98260.63
2023-02-22T16:02:30.303Z,98266.44
2023-02-22T16:05:02.992Z,98262.72
2023-02-22T16:07:31.279Z,98258.16
2023-02-22T16:10:08.199Z,98254.41
2023-02-22T16:12:37.110Z,98268.59
2023-02-22T16:15:16.699Z,98262.47
2023-02-22T16:18:01.068Z,98268.34
2023-02-22T16:20:35.465Z,98272.34
2023-02-22T16:23:23.783Z,98272.09
2023-02-22T16:26:19.951Z,98274.84
2023-02-22T16:28:52.015Z,98280.63
2023-02-22T16:31:22.378Z,98282.56
2023-02-22T16:33:51.270Z,98285.00
2023-02-22T16:36:22.702Z,98286.66
2023-02-22T16:38:51.881Z,98283.91
2023-02-22T16:41:20.890Z,98281.97
2023-02-22T16:43:51.364Z,98290.75
2023-02-22T16:46:20.532Z,98287.69
2023-02-22T16:48:49.014Z,98295.88
2023-02-22T16:51:22.148Z,98292.91
2023-02-22T16:53:51.190Z,98291.47
2023-02-22T16:56:21.372Z,98291.47
2023-02-22T16:58:51.215Z,98289.88
2023-02-22T17:01:20.096Z,98287.88
2023-02-22T17:03:48.654Z,98292.47
2023-02-22T17:06:17.509Z,98291.09
2023-02-22T17:08:47.261Z,98290.31
2023-02-22T17:11:15.964Z,98296.25
2023-02-22T17:13:45.807Z,98298.41
2023-02-22T17:16:16.546Z,98298.75
2023-02-22T17:18:46.143Z,98295.09
2023-02-22T17:21:16.806Z,98289.91
2023-02-22T17:23:46.272Z,98300.22
2023-02-22T17:26:18.186Z,98300.03
2023-02-22T17:28:46.626Z,98299.59
2023-02-22T17:31:20.967Z,98298.44
2023-02-22T17:33:51.454Z,98303.88
2023-02-22T17:36:20.977Z,98297.09
2023-02-22T17:38:50.187Z,98303.06
2023-02-22T17:41:20.419Z,98299.34
2023-02-22T17:43:48.750Z,98293.25
2023-02-22T17:46:19.789Z,98297.31
2023-02-22T17:48:49.391Z,98293.56
2023-02-22T17:51:18.113Z,98296.28
2023-02-22T17:53:46.452Z,98296.88
2023-02-22T17:56:18.865Z,98288.59
2023-02-22T17:58:50.803Z,98295.94
2023-02-22T18:01:27.232Z,98304.09
2023-02-22T18:03:57.045Z,98296.63
2023-02-22T18:06:28.573Z,98293.41
2023-02-22T18:08:58.932Z,98291.69
2023-02-22T18:11:32.616Z,98290.56
2023-02-22T18:14:02.611Z,98296.03
2023-02-22T18:16:31.135Z,98297.47
2023-02-22T18:19:01.741Z,98307.53
2023-02-22T18:21:30.470Z,98302.38
2023-02-22T18:23:58.808Z,98305.91
2023-02-22T18:26:28.119Z,98302.91
2023-02-22T18:28:57.374Z,98303.38
2023-02-22T18:31:27.346Z,98308.41
2023-02-22T18:33:57.631Z,98299.78
2023-02-22T18:36:26.245Z,98307.66
2023-02-22T18:38:55.811Z,98301.69
2023-02-22T18:41:27.105Z,98305.13
2023-02-22T18:43:59.065Z,98306.91
2023-02-22T18:46:30.346Z,98300.19
2023-02-22T18:48:59.178Z,98304.91
2023-02-22T18:51:28.473Z,98298.91
2023-02-22T18:54:00.590Z,98302.84
2023-02-22T18:56:31.039Z,98304.66
2023-02-22T18:59:00.313Z,98305.84
2023-02-22T19:01:31.358Z,98306.94
2023-02-22T19:03:59.677Z,98298.25
2023-02-22T19:06:28.234Z,98312.50
2023-02-22T19:08:56.414Z,98301.00
2023-02-22T19:11:25.816Z,98303.84
2023-02-22T19:13:55.720Z,98302.75
2023-02-22T19:16:26.618Z,98295.69
2023-02-22T19:18:58.080Z,98302.75
2023-02-22T19:21:27.858Z,98303.22
2023-02-22T19:23:56.048Z,98297.59
2023-02-22T19:26:26.311Z,98297.78
2023-02-22T19:28:56.567Z,98303.22
2023-02-22T19:31:29.807Z,98303.22
2023-02-22T19:34:03.444Z,98302.69
2023-02-22T19:36:32.169Z,98295.25
2023-02-22T19:39:02.018Z,98299.09
2023-02-22T19:41:31.161Z,98309.03
2023-02-22T19:43:59.804Z,98307.84
2023-02-22T19:46:28.587Z,98300.66
2023-02-22T19:48:57.338Z,98307.03
2023-02-22T19:51:28.789Z,98304.50
2023-02-22T19:53:58.784Z,98310.41
2023-02-22T19:56:28.466Z,98308.72
2023-02-22T19:58:58.092Z,98314.16
2023-02-22T20:01:29.203Z,98313.75
2023-02-22T20:04:00.102Z,98311.34
2023-02-22T20:06:34.900Z,98314.72
2023-02-22T20:09:04.211Z,98310.94
2023-02-22T20:11:32.421Z,98305.41
2023-02-22T20:14:02.158Z,98308.81
2023-02-22T20:16:30.799Z,98311.53
2023-02-22T20:18:59.548Z,98309.31
2023-02-22T20:21:31.962Z,98307.19
2023-02-22T20:24:01.137Z,98305.97
2023-02-22T20:26:31.092Z,98305.69
2023-02-22T20:29:00.153Z,98301.31
2023-02-22T20:31:29.649Z,98312.59
2023-02-22T20:34:00.030Z,98306.19
2023-02-22T20:36:31.120Z,98314.34
2023-02-22T20:39:00.107Z,98306.16
2023-02-22T20:41:29.862Z,98306.84
2023-02-22T20:43:58.692Z,98305.28
2023-02-22T20:46:28.198Z,98314.31
2023-02-22T20:48:57.290Z,98316.13
2023-02-22T20:51:26.366Z,98322.13
2023-02-22T20:53:59.853Z,98320.31
2023-02-22T20:56:29.895Z,98318.91
2023-02-22T20:59:00.150Z,98324.84
2023-02-22T21:01:28.582Z,98326.81
2023-02-22T21:04:01.652Z,98326.63
2023-02-22T21:06:30.953Z,98331.63
2023-02-22T21:09:02.861Z,98335.00
2023-02-22T21:11:32.469Z,98327.78
2023-02-22T21:14:01.784Z,98326.94
2023-02-22T21:16:31.889Z,98328.69
2023-02-22T21:19:03.415Z,98325.72
2023-02-22T21:21:32.070Z,98327.75
2023-02-22T21:24:02.249Z,98325.63
2023-02-22T21:26:33.100Z,98330.06
2023-02-22T21:29:03.540Z,98316.91
2023-02-22T21:31:33.012Z,98320.38
2023-02-22T21:34:02.271Z,98316.50
2023-02-22T21:36:32.133Z,98318.06
2023-02-22T21:39:08.475Z,98316.03
2023-02-22T21:41:39.167Z,98322.94
2023-02-22T21:44:09.230Z,98313.75
2023-02-22T21:46:37.660Z,98309.84
2023-02-22T21:49:06.277Z,98301.38
2023-02-22T21:51:35.166Z,98310.63
2023-02-22T21:54:07.355Z,98304.88
2023-02-22T21:56:38.044Z,98300.66
2023-02-22T21:59:11.780Z,98299.13
2023-02-22T22:01:43.074Z,98293.59
2023-02-22T22:04:13.753Z,98295.28
2023-02-22T22:06:42.203Z,98304.69
2023-02-22T22:09:18.388Z,98295.81
2023-02-22T22:11:49.702Z,98296.56
2023-02-22T22:14:18.719Z,98298.72
2023-02-22T22:16:48.485Z,98296.34
2023-02-22T22:19:17.893Z,98292.06
2023-02-22T22:21:48.915Z,98294.41
2023-02-22T22:24:20.949Z,98290.09
2023-02-22T22:26:51.263Z,98296.19
2023-02-22T22:29:19.864Z,98291.69
2023-02-22T22:31:48.834Z,98293.25
2023-02-22T22:34:17.508Z,98295.91
2023-02-22T22:36:47.578Z,98293.22
2023-02-22T22:39:16.218Z,98299.34
2023-02-22T22:41:46.435Z,98294.91
2023-02-22T22:44:16.515Z,98300.03
2023-02-22T22:46:49.152Z,98301.09
2023-02-22T22:49:18.594Z,98299.91
2023-02-22T22:51:47.562Z,98303.06
2023-02-22T22:54:16.067Z,98294.88
2023-02-22T22:56:46.562Z,98298.13
2023-02-22T22:59:15.401Z,98295.97
2023-02-22T23:01:45.399Z,98302.63
2023-02-22T23:04:16.937Z,98302.00
2023-02-22T23:06:45.472Z,98302.78
2023-02-22T23:09:18.903Z,98301.69
2023-02-22T23:11:51.039Z,98295.41
2023-02-22T23:14:21.491Z,98303.28
2023-02-22T23:16:50.965Z,98299.66
2023-02-22T23:19:20.413Z,98301.22
2023-02-22T23:21:49.220Z,98301.09
2023-02-22T23:24:20.790Z,98296.06
2023-02-22T23:26:50.731Z,98296.88
2023-02-22T23:29:20.857Z,98297.66
2023-02-22T23:31:49.571Z,98297.44
2023-02-22T23:34:21.218Z,98297.00
2023-02-22T23:36:50.120Z,98298.47
2023-02-22T23:39:20.636Z,98293.59
2023-02-22T23:41:52.773Z,98302.16
2023-02-22T23:44:21.994Z,98301.47
2023-02-22T23:46:55.290Z,98299.94
2023-02-22T23:49:26.245Z,98302.50
2023-02-22T23:51:54.648Z,98304.88
2023-02-22T23:54:24.612Z,98307.97
2023-02-22T23:56:57.304Z,98300.66
2023-02-22T23:59:27.176Z,98301.75
